createdAt,value
2022-09-22T00:01:07.879Z,100.00
2022-09-22T00:03:35.843Z,100.00
2022-09-22T00:06:09.390Z,100.00
2022-09-22T00:08:39.050Z,100.00
2022-09-22T00:11:08.353Z,100.00
2022-09-22T00:13:36.127Z,100.00
2022-09-22T00:16:03.287Z,100.00
2022-09-22T00:18:29.909Z,100.00
2022-09-22T00:20:56.429Z,100.00
2022-09-22T00:23:26.696Z,100.00
2022-09-22T00:25:53.175Z,100.00
2022-09-22T00:28:20.294Z,100.00
2022-09-22T00:30:47.562Z,100.00
2022-09-22T00:33:13.975Z,100.00
2022-09-22T00:35:40.464Z,100.00
2022-09-22T00:38:08.201Z,100.00
2022-09-22T00:40:35.717Z,100.00
2022-09-22T00:43:12.719Z,100.00
2022-09-22T00:45:39.225Z,100.00
2022-09-22T00:48:05.674Z,100.00
2022-09-22T00:50:32.397Z,100.00
2022-09-22T00:53:02.086Z,100.00
2022-09-22T00:55:47.190Z,100.00
2022-09-22T00:58:16.277Z,100.00
2022-09-22T01:00:43.211Z,100.00
2022-09-22T01:03:12.780Z,100.00
2022-09-22T01:05:41.177Z,100.00
2022-09-22T01:08:08.328Z,100.00
2022-09-22T01:10:34.838Z,100.00
2022-09-22T01:13:07.483Z,100.00
2022-09-22T01:15:41.247Z,100.00
2022-09-22T01:18:13.690Z,100.00
2022-09-22T01:21:02.519Z,100.00
2022-09-22T01:23:40.722Z,100.00
2022-09-22T01:26:07.306Z,100.00
2022-09-22T01:28:39.832Z,100.00
2022-09-22T01:31:11.884Z,100.00
2022-09-22T01:33:38.357Z,100.00
2022-09-22T01:36:07.886Z,100.00
2022-09-22T01:38:34.329Z,100.00
2022-09-22T01:41:03.938Z,100.00
2022-09-22T01:43:42.622Z,100.00
2022-09-22T01:46:15.077Z,100.00
2022-09-22T01:48:44.636Z,100.00
2022-09-22T01:51:14.560Z,100.00
2022-09-22T01:53:44.174Z,100.00
2022-09-22T01:56:13.133Z,100.00
2022-09-22T01:58:42.585Z,100.00
2022-09-22T02:01:14.743Z,100.00
2022-09-22T02:03:44.478Z,100.00
2022-09-22T02:06:23.806Z,100.00
2022-09-22T02:08:56.855Z,100.00
2022-09-22T02:11:23.912Z,100.00
2022-09-22T02:13:50.995Z,100.00
2022-09-22T02:16:19.834Z,100.00
2022-09-22T02:18:50.290Z,100.00
2022-09-22T02:21:17.429Z,100.00
2022-09-22T02:23:44.531Z,100.00
2022-09-22T02:26:13.169Z,100.00
2022-09-22T02:28:42.046Z,100.00
2022-09-22T02:31:20.179Z,100.00
2022-09-22T02:33:47.473Z,100.00
2022-09-22T02:36:13.981Z,100.00
2022-09-22T02:38:44.812Z,100.00
2022-09-22T02:41:17.701Z,100.00
2022-09-22T02:43:48.723Z,100.00
2022-09-22T02:46:32.085Z,100.00
2022-09-22T02:49:00.582Z,100.00
2022-09-22T02:51:28.026Z,100.00
2022-09-22T02:53:54.453Z,100.00
2022-09-22T02:56:20.926Z,100.00
2022-09-22T02:58:47.399Z,100.00
2022-09-22T03:01:13.929Z,100.00
2022-09-22T03:03:41.080Z,100.00
2022-09-22T03:06:07.570Z,100.00
2022-09-22T03:08:34.056Z,100.00
2022-09-22T03:11:00.514Z,100.00
2022-09-22T03:13:26.958Z,100.00
2022-09-22T03:15:53.571Z,100.00
2022-09-22T03:18:21.099Z,100.00
2022-09-22T03:20:47.578Z,100.00
2022-09-22T03:23:14.173Z,100.00
2022-09-22T03:25:40.855Z,100.00
2022-09-22T03:28:07.392Z,100.00
2022-09-22T03:30:37.233Z,100.00
2022-09-22T03:33:03.865Z,100.00
2022-09-22T03:35:32.344Z,100.00
2022-09-22T03:37:59.053Z,100.00
2022-09-22T03:40:25.640Z,100.00
2022-09-22T03:42:52.217Z,100.00
2022-09-22T03:45:18.763Z,100.00
2022-09-22T03:47:46.553Z,100.00
2022-09-22T03:50:14.235Z,100.00
2022-09-22T03:52:43.188Z,100.00
2022-09-22T03:55:10.002Z,100.00
2022-09-22T03:57:36.456Z,100.00
2022-09-22T04:00:04.021Z,100.00
2022-09-22T04:02:31.717Z,100.00
2022-09-22T04:04:58.231Z,100.00
2022-09-22T04:07:24.656Z,100.00
2022-09-22T04:09:51.155Z,100.00
2022-09-22T04:12:17.644Z,100.00
2022-09-22T04:14:44.113Z,100.00
2022-09-22T04:17:11.208Z,100.00
2022-09-22T04:19:37.757Z,100.00
2022-09-22T04:22:04.434Z,100.00
2022-09-22T04:24:31.482Z,100.00
2022-09-22T04:27:19.000Z,100.00
2022-09-22T04:29:46.306Z,100.00
2022-09-22T04:32:14.624Z,100.00
2022-09-22T04:34:41.161Z,100.00
2022-09-22T04:37:07.628Z,100.00
2022-09-22T04:39:34.099Z,100.00
2022-09-22T04:42:00.914Z,100.00
2022-09-22T04:44:27.466Z,100.00
2022-09-22T04:46:55.908Z,100.00
2022-09-22T04:49:22.567Z,100.00
2022-09-22T04:51:49.095Z,100.00
2022-09-22T04:54:15.548Z,100.00
2022-09-22T04:56:42.238Z,100.00
2022-09-22T04:59:10.093Z,100.00
2022-09-22T05:01:36.723Z,100.00
2022-09-22T05:04:03.315Z,100.00
2022-09-22T05:06:29.972Z,100.00
2022-09-22T05:08:56.747Z,100.00
2022-09-22T05:11:23.719Z,100.00
2022-09-22T05:13:50.965Z,100.00
2022-09-22T05:16:17.918Z,100.00
2022-09-22T05:18:44.418Z,100.00
2022-09-22T05:21:10.930Z,100.00
2022-09-22T05:23:37.348Z,100.00
2022-09-22T05:26:03.863Z,100.00
2022-09-22T05:28:30.268Z,100.00
2022-09-22T05:30:56.722Z,100.00
2022-09-22T05:33:23.133Z,100.00
2022-09-22T05:35:49.646Z,100.00
2022-09-22T05:38:16.046Z,100.00
2022-09-22T05:40:44.878Z,100.00
2022-09-22T05:43:11.370Z,100.00
2022-09-22T05:45:37.874Z,100.00
2022-09-22T05:48:04.472Z,100.00
2022-09-22T05:50:31.046Z,100.00
2022-09-22T05:53:04.920Z,100.00
2022-09-22T05:55:31.368Z,100.00
2022-09-22T05:57:58.064Z,100.00
2022-09-22T06:00:24.584Z,100.00
2022-09-22T06:02:51.062Z,100.00
2022-09-22T06:05:19.493Z,100.00
2022-09-22T06:07:46.441Z,100.00
2022-09-22T06:10:12.999Z,100.00
2022-09-22T06:12:40.714Z,100.00
2022-09-22T06:15:07.933Z,100.00
2022-09-22T06:17:34.400Z,100.00
2022-09-22T06:20:01.016Z,100.00
2022-09-22T06:22:27.441Z,100.00
2022-09-22T06:24:54.114Z,100.00
2022-09-22T06:27:20.537Z,100.00
2022-09-22T06:29:47.032Z,100.00
2022-09-22T06:32:13.852Z,100.00
2022-09-22T06:34:40.296Z,100.00
2022-09-22T06:37:09.675Z,100.00
2022-09-22T06:39:39.207Z,100.00
2022-09-22T06:42:06.273Z,100.00
2022-09-22T06:44:32.783Z,100.00
2022-09-22T06:46:59.723Z,100.00
2022-09-22T06:49:26.341Z,98.68
2022-09-22T06:51:52.890Z,94.65
2022-09-22T06:54:21.569Z,92.35
2022-09-22T06:56:48.736Z,89.83
2022-09-22T06:59:16.808Z,85.07
2022-09-22T07:01:45.117Z,81.87
2022-09-22T07:04:12.271Z,76.21
2022-09-22T07:06:40.792Z,79.15
2022-09-22T07:09:09.194Z,77.58
2022-09-22T07:11:39.761Z,77.67
2022-09-22T07:14:06.716Z,69.18
2022-09-22T07:16:33.227Z,67.68
2022-09-22T07:18:59.814Z,65.80
2022-09-22T07:21:29.970Z,64.47
2022-09-22T07:23:57.435Z,63.95
2022-09-22T07:26:28.868Z,63.99
2022-09-22T07:28:58.545Z,63.41
2022-09-22T07:31:28.800Z,64.28
2022-09-22T07:33:56.272Z,63.14
2022-09-22T07:36:23.859Z,61.20
2022-09-22T07:38:51.496Z,61.13
2022-09-22T07:41:19.158Z,59.99
2022-09-22T07:43:46.052Z,60.48
2022-09-22T07:46:13.596Z,61.98
2022-09-22T07:48:48.041Z,59.42
2022-09-22T07:51:19.848Z,59.95
2022-09-22T07:53:47.846Z,60.38
2022-09-22T07:56:15.409Z,59.41
2022-09-22T07:58:45.948Z,57.00
2022-09-22T08:01:12.490Z,57.99
2022-09-22T08:03:39.824Z,59.01
2022-09-22T08:06:11.273Z,58.33
2022-09-22T08:08:42.249Z,58.65
2022-09-22T08:11:17.827Z,58.13
2022-09-22T08:13:49.410Z,59.49
2022-09-22T08:16:17.733Z,60.53
2022-09-22T08:18:44.452Z,58.91
2022-09-22T08:21:10.887Z,59.45
2022-09-22T08:23:40.765Z,59.74
2022-09-22T08:26:09.463Z,58.99
2022-09-22T08:28:35.904Z,59.99
2022-09-22T08:31:02.658Z,58.26
2022-09-22T08:33:30.978Z,57.46
2022-09-22T08:35:59.517Z,57.64
2022-09-22T08:38:28.257Z,57.69
2022-09-22T08:41:05.826Z,57.22
2022-09-22T08:43:34.135Z,57.75
2022-09-22T08:46:03.348Z,57.43
2022-09-22T08:48:49.076Z,57.03
2022-09-22T08:51:46.137Z,55.43
2022-09-22T08:54:12.691Z,55.89
2022-09-22T08:56:55.146Z,57.35
2022-09-22T08:59:23.193Z,55.17
2022-09-22T09:02:08.721Z,56.49
2022-09-22T09:04:35.487Z,58.86
2022-09-22T09:07:18.402Z,54.62
2022-09-22T09:10:01.019Z,52.45
2022-09-22T09:12:45.995Z,52.52
2022-09-22T09:15:31.131Z,53.36
2022-09-22T09:18:02.723Z,52.93
2022-09-22T09:20:32.239Z,54.19
2022-09-22T09:23:03.893Z,51.81
2022-09-22T09:25:38.924Z,51.30
2022-09-22T09:28:27.860Z,49.43
2022-09-22T09:31:02.451Z,49.40
2022-09-22T09:33:31.918Z,49.32
2022-09-22T09:35:58.633Z,49.44
2022-09-22T09:38:31.520Z,47.98
2022-09-22T09:41:01.337Z,44.78
2022-09-22T09:43:28.294Z,46.36
2022-09-22T09:46:07.667Z,46.24
2022-09-22T09:48:40.986Z,45.62
2022-09-22T09:51:11.928Z,46.41
2022-09-22T09:53:42.725Z,45.58
2022-09-22T09:56:21.284Z,46.62
2022-09-22T09:59:13.909Z,44.46
2022-09-22T10:01:42.190Z,45.67
2022-09-22T10:04:27.687Z,47.09
2022-09-22T10:06:54.593Z,44.90
2022-09-22T10:09:40.257Z,45.56
2022-09-22T10:12:08.415Z,44.69
2022-09-22T10:14:35.194Z,49.06
2022-09-22T10:17:01.712Z,48.98
2022-09-22T10:19:30.400Z,51.77
2022-09-22T10:22:17.510Z,50.12
2022-09-22T10:24:57.367Z,47.67
2022-09-22T10:27:24.996Z,46.22
2022-09-22T10:30:11.515Z,47.61
2022-09-22T10:32:38.461Z,44.63
2022-09-22T10:35:26.179Z,43.93
2022-09-22T10:37:56.256Z,42.85
2022-09-22T10:40:23.556Z,42.96
2022-09-22T10:42:51.956Z,44.07
2022-09-22T10:45:20.365Z,43.16
2022-09-22T10:47:55.991Z,45.04
2022-09-22T10:50:47.006Z,43.26
2022-09-22T10:53:31.294Z,43.79
2022-09-22T10:56:17.776Z,43.87
2022-09-22T10:58:45.408Z,42.73
2022-09-22T11:01:18.674Z,45.24
2022-09-22T11:03:54.053Z,43.95
2022-09-22T11:06:46.795Z,41.73
2022-09-22T11:09:38.012Z,40.64
2022-09-22T11:12:16.417Z,41.94
2022-09-22T11:14:45.939Z,41.54
2022-09-22T11:17:31.663Z,39.90
2022-09-22T11:20:01.227Z,42.17
2022-09-22T11:22:30.806Z,39.37
2022-09-22T11:25:27.253Z,40.84
2022-09-22T11:28:03.245Z,39.80
2022-09-22T11:30:39.243Z,41.03
2022-09-22T11:33:20.821Z,41.24
2022-09-22T11:36:06.221Z,41.74
2022-09-22T11:38:53.063Z,42.07
2022-09-22T11:41:29.920Z,40.12
2022-09-22T11:44:15.264Z,39.72
2022-09-22T11:46:57.139Z,38.58
2022-09-22T11:49:47.171Z,40.64
2022-09-22T11:52:17.543Z,40.19
2022-09-22T11:55:10.549Z,42.28
2022-09-22T11:57:40.648Z,41.07
2022-09-22T12:00:18.834Z,40.87
2022-09-22T12:03:02.637Z,40.36
2022-09-22T12:05:35.303Z,41.06
2022-09-22T12:08:01.821Z,41.53
2022-09-22T12:10:35.765Z,38.60
2022-09-22T12:13:04.509Z,40.31
2022-09-22T12:15:30.973Z,40.67
2022-09-22T12:18:03.720Z,40.06
2022-09-22T12:20:52.513Z,40.76
2022-09-22T12:23:52.208Z,39.95
2022-09-22T12:26:30.988Z,39.25
2022-09-22T12:28:58.658Z,40.83
2022-09-22T12:31:36.121Z,40.65
2022-09-22T12:34:03.835Z,42.29
2022-09-22T12:36:32.962Z,40.43
2022-09-22T12:39:11.638Z,41.87
2022-09-22T12:41:45.118Z,44.25
2022-09-22T12:44:13.874Z,43.47
2022-09-22T12:46:43.087Z,46.39
2022-09-22T12:49:13.778Z,45.11
2022-09-22T12:51:40.239Z,47.21
2022-09-22T12:54:38.323Z,50.58
2022-09-22T12:57:08.733Z,48.90
2022-09-22T12:59:39.457Z,47.64
2022-09-22T13:02:26.132Z,49.12
2022-09-22T13:05:13.417Z,50.17
2022-09-22T13:07:41.675Z,46.53
2022-09-22T13:10:27.561Z,43.10
2022-09-22T13:12:57.042Z,44.08
2022-09-22T13:15:24.096Z,42.37
2022-09-22T13:17:52.767Z,42.21
2022-09-22T13:20:22.293Z,41.92
2022-09-22T13:22:48.852Z,40.08
2022-09-22T13:25:20.183Z,39.82
2022-09-22T13:27:46.895Z,40.18
2022-09-22T13:30:14.377Z,40.99
2022-09-22T13:32:53.925Z,41.14
2022-09-22T13:35:24.154Z,40.39
2022-09-22T13:37:50.719Z,41.49
2022-09-22T13:40:17.331Z,40.88
2022-09-22T13:42:44.902Z,39.57
2022-09-22T13:45:18.777Z,40.07
2022-09-22T13:47:47.056Z,40.27
2022-09-22T13:50:19.304Z,45.35
2022-09-22T13:52:52.250Z,44.46
2022-09-22T13:55:26.537Z,40.55
2022-09-22T13:57:55.512Z,40.72
2022-09-22T14:00:24.752Z,41.70
2022-09-22T14:02:52.263Z,43.60
2022-09-22T14:05:28.179Z,41.42
2022-09-22T14:08:17.101Z,42.91
2022-09-22T14:10:45.036Z,43.68
2022-09-22T14:13:31.450Z,43.26
2022-09-22T14:15:57.970Z,44.04
2022-09-22T14:18:26.473Z,45.33
2022-09-22T14:20:55.579Z,44.65
2022-09-22T14:23:27.146Z,45.01
2022-09-22T14:25:56.016Z,44.68
2022-09-22T14:28:24.992Z,43.97
2022-09-22T14:30:51.707Z,45.64
2022-09-22T14:33:22.460Z,44.68
2022-09-22T14:35:49.893Z,45.21
2022-09-22T14:38:23.126Z,45.55
2022-09-22T14:40:50.884Z,45.63
2022-09-22T14:43:24.997Z,46.33
2022-09-22T14:46:00.071Z,47.35
2022-09-22T14:48:34.455Z,46.79
2022-09-22T14:51:07.464Z,46.41
2022-09-22T14:53:46.377Z,47.39
2022-09-22T14:56:15.523Z,48.19
2022-09-22T14:58:43.974Z,46.86
2022-09-22T15:01:42.228Z,47.12
2022-09-22T15:04:14.865Z,46.98
2022-09-22T15:06:41.642Z,47.47
2022-09-22T15:09:22.693Z,47.99
2022-09-22T15:11:49.468Z,48.28
2022-09-22T15:14:25.865Z,48.72
2022-09-22T15:16:52.572Z,50.08
2022-09-22T15:19:20.783Z,51.20
2022-09-22T15:21:55.096Z,54.57
2022-09-22T15:24:27.000Z,56.61
2022-09-22T15:26:57.357Z,57.39
2022-09-22T15:29:25.827Z,58.08
2022-09-22T15:31:52.407Z,59.64
2022-09-22T15:34:18.967Z,61.15
2022-09-22T15:36:48.878Z,61.93
2022-09-22T15:39:23.018Z,61.37
2022-09-22T15:41:52.886Z,65.21
2022-09-22T15:44:19.485Z,65.17
2022-09-22T15:46:51.520Z,67.57
2022-09-22T15:49:21.155Z,69.42
2022-09-22T15:51:58.339Z,70.79
2022-09-22T15:54:26.253Z,73.25
2022-09-22T15:56:55.827Z,73.62
2022-09-22T15:59:24.613Z,74.59
2022-09-22T16:01:52.254Z,74.71
2022-09-22T16:04:20.196Z,78.15
2022-09-22T16:06:55.782Z,79.21
2022-09-22T16:09:22.595Z,87.00
2022-09-22T16:11:50.456Z,78.86
2022-09-22T16:14:17.409Z,78.98
2022-09-22T16:16:45.891Z,77.45
2022-09-22T16:19:12.529Z,74.78
2022-09-22T16:21:43.140Z,75.33
2022-09-22T16:24:10.784Z,77.30
2022-09-22T16:26:38.200Z,79.58
2022-09-22T16:29:04.979Z,80.75
2022-09-22T16:31:31.525Z,81.45
2022-09-22T16:34:00.408Z,77.24
2022-09-22T16:36:35.196Z,78.94
2022-09-22T16:39:02.262Z,78.94
2022-09-22T16:41:29.946Z,83.97
2022-09-22T16:43:56.933Z,86.56
2022-09-22T16:46:27.013Z,89.92
2022-09-22T16:49:01.295Z,92.94
2022-09-22T16:51:28.035Z,96.39
2022-09-22T16:53:55.787Z,96.21
2022-09-22T16:56:23.503Z,94.29
2022-09-22T16:58:50.030Z,93.28
2022-09-22T17:01:19.844Z,93.81
2022-09-22T17:03:48.241Z,93.93
2022-09-22T17:06:25.494Z,95.10
2022-09-22T17:08:53.576Z,98.28
2022-09-22T17:11:21.657Z,93.53
2022-09-22T17:13:50.867Z,90.06
2022-09-22T17:16:33.734Z,91.79
2022-09-22T17:19:04.951Z,95.94
2022-09-22T17:21:34.464Z,95.87
2022-09-22T17:24:15.514Z,99.23
2022-09-22T17:26:47.870Z,100.00
2022-09-22T17:29:15.978Z,100.00
2022-09-22T17:31:43.330Z,100.00
2022-09-22T17:34:10.621Z,100.00
2022-09-22T17:36:37.531Z,100.00
2022-09-22T17:39:04.834Z,100.00
2022-09-22T17:41:33.311Z,100.00
2022-09-22T17:44:02.344Z,100.00
2022-09-22T17:46:30.089Z,100.00
2022-09-22T17:49:35.993Z,100.00
2022-09-22T17:52:21.024Z,100.00
2022-09-22T17:55:06.196Z,100.00
2022-09-22T17:57:37.697Z,100.00
2022-09-22T18:00:06.377Z,100.00
2022-09-22T18:02:36.684Z,100.00
2022-09-22T18:05:07.899Z,100.00
2022-09-22T18:07:38.286Z,100.00
2022-09-22T18:10:06.847Z,100.00
2022-09-22T18:12:34.228Z,100.00
2022-09-22T18:15:04.076Z,100.00
2022-09-22T18:17:32.350Z,100.00
2022-09-22T18:19:59.344Z,100.00
2022-09-22T18:22:27.111Z,100.00
2022-09-22T18:24:58.772Z,100.00
2022-09-22T18:27:29.907Z,100.00
2022-09-22T18:29:59.557Z,100.00
2022-09-22T18:32:31.076Z,100.00
2022-09-22T18:34:57.529Z,100.00
2022-09-22T18:37:29.979Z,100.00
2022-09-22T18:40:05.894Z,100.00
2022-09-22T18:42:32.458Z,100.00
2022-09-22T18:44:58.934Z,100.00
2022-09-22T18:47:25.552Z,100.00
2022-09-22T18:49:52.048Z,100.00
2022-09-22T18:52:24.717Z,100.00
2022-09-22T18:54:54.200Z,100.00
2022-09-22T18:57:21.898Z,100.00
2022-09-22T18:59:51.213Z,100.00
2022-09-22T19:02:22.536Z,100.00
2022-09-22T19:04:49.417Z,100.00
2022-09-22T19:07:42.926Z,100.00
2022-09-22T19:10:10.950Z,100.00
2022-09-22T19:12:39.675Z,100.00
2022-09-22T19:15:13.784Z,100.00
2022-09-22T19:17:44.583Z,100.00
2022-09-22T19:20:13.640Z,100.00
2022-09-22T19:22:45.850Z,100.00
2022-09-22T19:25:12.909Z,100.00
2022-09-22T19:27:40.073Z,100.00
2022-09-22T19:30:07.264Z,100.00
2022-09-22T19:32:33.862Z,100.00
2022-09-22T19:35:00.379Z,100.00
2022-09-22T19:37:29.223Z,100.00
2022-09-22T19:39:55.760Z,100.00
2022-09-22T19:42:22.370Z,100.00
2022-09-22T19:44:48.923Z,100.00
2022-09-22T19:47:16.019Z,100.00
2022-09-22T19:49:42.513Z,100.00
2022-09-22T19:52:09.359Z,100.00
2022-09-22T19:54:35.829Z,100.00
2022-09-22T19:57:02.772Z,100.00
2022-09-22T19:59:29.735Z,100.00
2022-09-22T20:01:56.295Z,100.00
2022-09-22T20:04:23.510Z,100.00
2022-09-22T20:06:50.006Z,100.00
2022-09-22T20:09:22.498Z,100.00
2022-09-22T20:11:49.665Z,100.00
2022-09-22T20:14:22.951Z,100.00
2022-09-22T20:16:50.883Z,100.00
2022-09-22T20:19:17.713Z,100.00
2022-09-22T20:21:54.650Z,100.00
2022-09-22T20:24:22.607Z,100.00
2022-09-22T20:26:49.180Z,100.00
2022-09-22T20:29:17.861Z,100.00
2022-09-22T20:31:44.908Z,100.00
2022-09-22T20:34:15.193Z,100.00
2022-09-22T20:36:43.128Z,100.00
2022-09-22T20:39:13.302Z,100.00
2022-09-22T20:41:41.079Z,100.00
2022-09-22T20:44:14.872Z,100.00
2022-09-22T20:46:42.139Z,100.00
2022-09-22T20:49:12.266Z,100.00
2022-09-22T20:51:48.970Z,100.00
2022-09-22T20:54:16.185Z,100.00
2022-09-22T20:56:43.099Z,100.00
2022-09-22T20:59:09.874Z,100.00
2022-09-22T21:01:37.060Z,100.00
2022-09-22T21:04:03.595Z,100.00
2022-09-22T21:06:31.099Z,100.00
2022-09-22T21:09:16.414Z,100.00
2022-09-22T21:11:43.205Z,100.00
2022-09-22T21:14:09.812Z,100.00
2022-09-22T21:16:37.264Z,100.00
2022-09-22T21:19:03.896Z,100.00
2022-09-22T21:21:31.744Z,100.00
2022-09-22T21:24:01.986Z,100.00
2022-09-22T21:26:29.599Z,100.00
2022-09-22T21:28:56.046Z,100.00
2022-09-22T21:31:28.079Z,100.00
2022-09-22T21:33:54.805Z,100.00
2022-09-22T21:36:22.686Z,100.00
2022-09-22T21:38:50.333Z,100.00
2022-09-22T21:41:18.208Z,100.00
2022-09-22T21:43:47.744Z,100.00
2022-09-22T21:46:15.920Z,100.00
2022-09-22T21:48:42.648Z,100.00
2022-09-22T21:51:16.231Z,100.00
2022-09-22T21:53:45.873Z,100.00
2022-09-22T21:56:17.943Z,100.00
2022-09-22T21:58:46.006Z,100.00
2022-09-22T22:01:16.305Z,100.00
2022-09-22T22:03:43.731Z,100.00
2022-09-22T22:06:13.388Z,100.00
2022-09-22T22:08:48.193Z,100.00
2022-09-22T22:11:14.642Z,100.00
2022-09-22T22:13:42.277Z,100.00
2022-09-22T22:16:11.389Z,100.00
2022-09-22T22:18:38.719Z,100.00
2022-09-22T22:21:09.970Z,100.00
2022-09-22T22:23:40.080Z,100.00
2022-09-22T22:26:08.830Z,100.00
2022-09-22T22:28:35.504Z,100.00
2022-09-22T22:31:03.348Z,100.00
2022-09-22T22:33:30.193Z,100.00
2022-09-22T22:35:59.735Z,100.00
2022-09-22T22:38:26.523Z,100.00
2022-09-22T22:40:53.069Z,100.00
2022-09-22T22:43:25.558Z,100.00
2022-09-22T22:45:52.156Z,100.00
2022-09-22T22:48:18.794Z,100.00
2022-09-22T22:50:45.267Z,100.00
2022-09-22T22:53:12.786Z,100.00
2022-09-22T22:55:40.542Z,100.00
2022-09-22T22:58:07.012Z,100.00
2022-09-22T23:00:33.465Z,100.00
2022-09-22T23:02:59.943Z,100.00
2022-09-22T23:05:26.931Z,100.00
2022-09-22T23:07:54.073Z,100.00
2022-09-22T23:10:21.213Z,100.00
2022-09-22T23:12:47.755Z,100.00
2022-09-22T23:15:15.667Z,100.00
2022-09-22T23:17:42.105Z,100.00
2022-09-22T23:20:08.910Z,100.00
2022-09-22T23:22:35.553Z,100.00
2022-09-22T23:25:03.111Z,100.00
2022-09-22T23:27:29.615Z,100.00
2022-09-22T23:29:57.261Z,100.00
2022-09-22T23:32:24.595Z,100.00
2022-09-22T23:34:51.038Z,100.00
2022-09-22T23:37:17.653Z,100.00
2022-09-22T23:39:44.110Z,100.00
2022-09-22T23:42:10.597Z,100.00
2022-09-22T23:44:37.043Z,100.00
2022-09-22T23:47:03.584Z,100.00
2022-09-22T23:49:30.021Z,100.00
2022-09-22T23:51:56.449Z,100.00
2022-09-22T23:54:24.030Z,100.00
2022-09-22T23:56:50.530Z,100.00
2022-09-22T23:59:17.018Z,100.00
